Terminal Aerodrome Forecast
Issued by NWS

Home | Current Version | Previous Version | Text Only | Print | Product List | Glossary On
Versions: 1 2 3 4 5 6 7 8 9 10 11 12 13 14 15 16 17 18 19 20 21 22 23 24 25 26 27 28 29 30 31 32 33 34
000
FTUS43 KLSX 011121
TAFUIN
TAF
KUIN 011121Z 0112/0212 02008KT 2SM BR OVC002
     FM011400 03006KT 5SM BR BKN005
     FM011700 32012KT P6SM VCSH BKN015
     FM020100 33008KT P6SM BKN010=

USA.gov is the U.S. government's official web portal to all federal, state and local government web resources and services.